sensor_id;sensor_type;location;lat;lon;timestamp;pressure;altitude;pressure_sealevel;temperature;humidity
77574;BME280;66710;48.868;9.080;2023-02-22T00:00:41;97922.53;;;4.90;74.83
77574;BME280;66710;48.868;9.080;2023-02-22T00:03:12;97921.81;;;4.95;73.97
77574;BME280;66710;48.868;9.080;2023-02-22T00:05:40;97921.13;;;4.88;75.12
77574;BME280;66710;48.868;9.080;2023-02-22T00:08:09;97924.88;;;4.87;75.64
77574;BME280;66710;48.868;9.080;2023-02-22T00:10:36;97917.28;;;4.84;75.39
77574;BME280;66710;48.868;9.080;2023-02-22T00:13:07;97913.03;;;4.88;75.76
77574;BME280;66710;48.868;9.080;2023-02-22T00:15:33;97922.44;;;4.85;74.96
77574;BME280;66710;48.868;9.080;2023-02-22T00:17:59;97911.06;;;4.83;76.30
77574;BME280;66710;48.868;9.080;2023-02-22T00:20:24;97910.47;;;4.81;75.85
77574;BME280;66710;48.868;9.080;2023-02-22T00:22:50;97908.25;;;4.78;75.82
77574;BME280;66710;48.868;9.080;2023-02-22T00:25:21;97909.19;;;4.84;76.34
77574;BME280;66710;48.868;9.080;2023-02-22T00:27:48;97916.59;;;4.77;76.01
77574;BME280;66710;48.868;9.080;2023-02-22T00:30:18;97901.00;;;4.67;76.83
77574;BME280;66710;48.868;9.080;2023-02-22T00:32:45;97905.34;;;4.68;74.86
77574;BME280;66710;48.868;9.080;2023-02-22T00:35:14;97894.56;;;4.68;76.16
77574;BME280;66710;48.868;9.080;2023-02-22T00:37:40;97899.34;;;4.66;76.64
77574;BME280;66710;48.868;9.080;2023-02-22T00:40:10;97900.78;;;4.56;75.77
77574;BME280;66710;48.868;9.080;2023-02-22T00:42:36;97899.72;;;4.58;76.57
77574;BME280;66710;48.868;9.080;2023-02-22T00:45:02;97900.88;;;4.50;76.28
77574;BME280;66710;48.868;9.080;2023-02-22T00:47:28;97899.16;;;4.44;76.41
77574;BME280;66710;48.868;9.080;2023-02-22T00:49:54;97891.97;;;4.49;76.73
77574;BME280;66710;48.868;9.080;2023-02-22T00:52:19;97888.94;;;4.46;77.10
77574;BME280;66710;48.868;9.080;2023-02-22T00:54:45;97891.50;;;4.41;77.23
77574;BME280;66710;48.868;9.080;2023-02-22T00:57:11;97889.75;;;4.46;77.43
77574;BME280;66710;48.868;9.080;2023-02-22T00:59:36;97884.22;;;4.41;77.77
77574;BME280;66710;48.868;9.080;2023-02-22T01:02:02;97882.03;;;4.38;76.67
77574;BME280;66710;48.868;9.080;2023-02-22T01:04:27;97881.53;;;4.41;77.99
77574;BME280;66710;48.868;9.080;2023-02-22T01:06:52;97879.34;;;4.38;77.90
77574;BME280;66710;48.868;9.080;2023-02-22T01:09:18;97886.47;;;4.44;76.82
77574;BME280;66710;48.868;9.080;2023-02-22T01:11:44;97878.25;;;4.39;77.74
77574;BME280;66710;48.868;9.080;2023-02-22T01:14:09;97870.91;;;4.34;78.13
77574;BME280;66710;48.868;9.080;2023-02-22T01:16:35;97874.88;;;4.32;77.88
77574;BME280;66710;48.868;9.080;2023-02-22T01:19:01;97883.81;;;4.32;77.34
77574;BME280;66710;48.868;9.080;2023-02-22T01:21:26;97873.25;;;4.31;77.46
77574;BME280;66710;48.868;9.080;2023-02-22T01:23:52;97875.94;;;4.31;77.36
77574;BME280;66710;48.868;9.080;2023-02-22T01:26:19;97873.13;;;4.26;77.13
77574;BME280;66710;48.868;9.080;2023-02-22T01:28:44;97867.97;;;4.24;77.66
77574;BME280;66710;48.868;9.080;2023-02-22T01:31:10;97863.50;;;4.18;77.60
77574;BME280;66710;48.868;9.080;2023-02-22T01:33:35;97866.91;;;4.13;77.22
77574;BME280;66710;48.868;9.080;2023-02-22T01:36:00;97864.91;;;4.09;77.65
77574;BME280;66710;48.868;9.080;2023-02-22T01:38:26;97865.38;;;4.06;77.73
77574;BME280;66710;48.868;9.080;2023-02-22T01:40:51;97859.84;;;4.01;78.57
77574;BME280;66710;48.868;9.080;2023-02-22T01:43:25;97855.53;;;3.99;78.70
77574;BME280;66710;48.868;9.080;2023-02-22T01:45:55;97855.66;;;4.05;77.81
77574;BME280;66710;48.868;9.080;2023-02-22T01:48:40;97842.66;;;4.02;78.42
77574;BME280;66710;48.868;9.080;2023-02-22T01:51:14;97838.28;;;4.01;77.39
77574;BME280;66710;48.868;9.080;2023-02-22T01:56:09;97839.84;;;3.96;78.63
77574;BME280;66710;48.868;9.080;2023-02-22T01:58:35;97837.50;;;3.88;78.46
77574;BME280;66710;48.868;9.080;2023-02-22T02:01:02;97832.13;;;3.88;78.14
77574;BME280;66710;48.868;9.080;2023-02-22T02:03:29;97828.69;;;3.93;77.67
77574;BME280;66710;48.868;9.080;2023-02-22T02:06:01;97825.19;;;3.92;78.75
77574;BME280;66710;48.868;9.080;2023-02-22T02:11:05;97827.31;;;3.90;79.00
77574;BME280;66710;48.868;9.080;2023-02-22T02:13:32;97821.44;;;3.93;78.54
77574;BME280;66710;48.868;9.080;2023-02-22T02:15:57;97816.75;;;3.89;78.34
77574;BME280;66710;48.868;9.080;2023-02-22T02:18:25;97810.31;;;4.02;78.44
77574;BME280;66710;48.868;9.080;2023-02-22T02:21:12;97811.34;;;4.01;78.26
77574;BME280;66710;48.868;9.080;2023-02-22T02:24:10;97812.53;;;4.05;79.01
77574;BME280;66710;48.868;9.080;2023-02-22T02:29:30;97806.06;;;4.06;79.48
77574;BME280;66710;48.868;9.080;2023-02-22T02:37:41;97798.91;;;4.23;79.32
77574;BME280;66710;48.868;9.080;2023-02-22T02:40:30;97792.72;;;4.11;79.65
77574;BME280;66710;48.868;9.080;2023-02-22T02:48:24;97801.03;;;4.09;79.61
77574;BME280;66710;48.868;9.080;2023-02-22T02:50:50;97788.16;;;4.11;79.87
77574;BME280;66710;48.868;9.080;2023-02-22T02:53:20;97786.84;;;4.02;79.90
77574;BME280;66710;48.868;9.080;2023-02-22T02:55:46;97786.50;;;3.98;79.11
77574;BME280;66710;48.868;9.080;2023-02-22T02:58:20;97783.47;;;3.95;79.11
77574;BME280;66710;48.868;9.080;2023-02-22T03:00:48;97783.13;;;3.91;79.26
77574;BME280;66710;48.868;9.080;2023-02-22T03:09:21;97777.97;;;3.90;79.93
77574;BME280;66710;48.868;9.080;2023-02-22T03:12:21;97773.06;;;3.87;79.46
77574;BME280;66710;48.868;9.080;2023-02-22T03:17:36;97767.19;;;3.90;79.84
77574;BME280;66710;48.868;9.080;2023-02-22T03:25:29;97763.31;;;3.74;80.50
77574;BME280;66710;48.868;9.080;2023-02-22T03:28:02;97759.94;;;3.78;80.00
77574;BME280;66710;48.868;9.080;2023-02-22T03:30:35;97763.09;;;3.75;80.48
77574;BME280;66710;48.868;9.080;2023-02-22T03:33:09;97762.06;;;3.76;79.53
77574;BME280;66710;48.868;9.080;2023-02-22T03:35:41;97752.66;;;3.79;80.03
77574;BME280;66710;48.868;9.080;2023-02-22T03:38:08;97754.78;;;3.77;79.83
77574;BME280;66710;48.868;9.080;2023-02-22T03:40:39;97748.59;;;3.76;80.44
77574;BME280;66710;48.868;9.080;2023-02-22T03:43:11;97755.00;;;3.75;80.86
77574;BME280;66710;48.868;9.080;2023-02-22T03:45:39;97753.16;;;3.76;80.48
77574;BME280;66710;48.868;9.080;2023-02-22T03:48:19;97753.38;;;3.74;81.38
77574;BME280;66710;48.868;9.080;2023-02-22T03:50:48;97751.75;;;3.85;79.60
77574;BME280;66710;48.868;9.080;2023-02-22T03:53:13;97751.97;;;3.84;80.71
77574;BME280;66710;48.868;9.080;2023-02-22T03:55:39;97752.09;;;3.89;79.58
77574;BME280;66710;48.868;9.080;2023-02-22T03:58:09;97759.09;;;3.90;80.45
77574;BME280;66710;48.868;9.080;2023-02-22T04:00:36;97758.75;;;3.86;80.45
77574;BME280;66710;48.868;9.080;2023-02-22T04:03:02;97752.09;;;3.89;80.10
77574;BME280;66710;48.868;9.080;2023-02-22T04:05:27;97755.81;;;3.88;80.29
77574;BME280;66710;48.868;9.080;2023-02-22T04:07:54;97753.25;;;3.81;80.56
77574;BME280;66710;48.868;9.080;2023-02-22T04:10:20;97752.44;;;3.80;83.07
77574;BME280;66710;48.868;9.080;2023-02-22T04:12:46;97752.22;;;3.94;81.60
77574;BME280;66710;48.868;9.080;2023-02-22T04:15:14;97743.63;;;3.97;80.31
77574;BME280;66710;48.868;9.080;2023-02-22T04:17:40;97744.13;;;3.94;81.39
77574;BME280;66710;48.868;9.080;2023-02-22T04:20:05;97753.03;;;3.94;81.03
77574;BME280;66710;48.868;9.080;2023-02-22T04:22:31;97748.09;;;3.91;80.48
77574;BME280;66710;48.868;9.080;2023-02-22T04:24:56;97741.06;;;3.78;81.00
77574;BME280;66710;48.868;9.080;2023-02-22T04:27:22;97743.53;;;3.68;81.56
77574;BME280;66710;48.868;9.080;2023-02-22T04:29:47;97742.03;;;3.60;80.22
77574;BME280;66710;48.868;9.080;2023-02-22T04:32:13;97739.56;;;3.59;81.26
77574;BME280;66710;48.868;9.080;2023-02-22T04:34:38;97743.19;;;3.53;80.97
77574;BME280;66710;48.868;9.080;2023-02-22T04:37:03;97740.75;;;3.51;81.31
77574;BME280;66710;48.868;9.080;2023-02-22T04:39:29;97747.41;;;3.49;80.83
77574;BME280;66710;48.868;9.080;2023-02-22T04:41:54;97746.00;;;3.46;81.45
77574;BME280;66710;48.868;9.080;2023-02-22T04:44:20;97740.50;;;3.41;81.47
77574;BME280;66710;48.868;9.080;2023-02-22T04:46:45;97739.31;;;3.37;81.39
77574;BME280;66710;48.868;9.080;2023-02-22T04:49:11;97733.34;;;3.35;81.79
77574;BME280;66710;48.868;9.080;2023-02-22T04:51:36;97729.38;;;3.37;80.28
77574;BME280;66710;48.868;9.080;2023-02-22T04:54:02;97738.50;;;3.36;81.05
77574;BME280;66710;48.868;9.080;2023-02-22T04:56:27;97737.56;;;3.31;80.79
77574;BME280;66710;48.868;9.080;2023-02-22T04:58:53;97739.66;;;3.29;81.34
77574;BME280;66710;48.868;9.080;2023-02-22T05:01:18;97734.72;;;3.26;81.49
77574;BME280;66710;48.868;9.080;2023-02-22T05:03:43;97740.13;;;3.26;81.30
77574;BME280;66710;48.868;9.080;2023-02-22T05:06:09;97740.56;;;3.22;81.85
77574;BME280;66710;48.868;9.080;2023-02-22T05:08:36;97739.09;;;3.27;81.70
77574;BME280;66710;48.868;9.080;2023-02-22T05:11:02;97736.13;;;3.28;81.37
77574;BME280;66710;48.868;9.080;2023-02-22T05:13:27;97739.53;;;3.23;80.65
77574;BME280;66710;48.868;9.080;2023-02-22T05:15:52;97735.19;;;3.22;81.77
77574;BME280;66710;48.868;9.080;2023-02-22T05:18:18;97727.84;;;3.18;81.75
77574;BME280;66710;48.868;9.080;2023-02-22T05:20:43;97725.59;;;3.15;81.18
77574;BME280;66710;48.868;9.080;2023-02-22T05:23:09;97733.66;;;3.15;81.66
77574;BME280;66710;48.868;9.080;2023-02-22T05:25:34;97723.59;;;3.10;81.24
77574;BME280;66710;48.868;9.080;2023-02-22T05:28:06;97723.13;;;3.13;82.28
77574;BME280;66710;48.868;9.080;2023-02-22T05:30:34;97723.34;;;3.12;81.87
77574;BME280;66710;48.868;9.080;2023-02-22T05:33:00;97725.91;;;3.07;80.74
77574;BME280;66710;48.868;9.080;2023-02-22T05:35:26;97719.28;;;3.09;82.13
77574;BME280;66710;48.868;9.080;2023-02-22T05:37:53;97722.53;;;3.11;81.26
77574;BME280;66710;48.868;9.080;2023-02-22T05:40:20;97721.25;;;3.14;79.75
77574;BME280;66710;48.868;9.080;2023-02-22T05:42:47;97714.25;;;3.13;82.23
77574;BME280;66710;48.868;9.080;2023-02-22T05:45:14;97719.28;;;3.09;82.04
77574;BME280;66710;48.868;9.080;2023-02-22T05:47:39;97716.94;;;3.13;82.07
77574;BME280;66710;48.868;9.080;2023-02-22T05:50:06;97717.75;;;3.13;81.19
77574;BME280;66710;48.868;9.080;2023-02-22T05:52:31;97703.34;;;3.08;81.54
77574;BME280;66710;48.868;9.080;2023-02-22T05:54:57;97717.75;;;3.13;81.85
77574;BME280;66710;48.868;9.080;2023-02-22T05:57:22;97717.16;;;3.11;81.77
77574;BME280;66710;48.868;9.080;2023-02-22T05:59:48;97715.06;;;3.13;82.41
77574;BME280;66710;48.868;9.080;2023-02-22T06:02:13;97714.56;;;3.04;83.38
77574;BME280;66710;48.868;9.080;2023-02-22T06:04:38;97719.94;;;3.04;83.10
77574;BME280;66710;48.868;9.080;2023-02-22T06:07:04;97718.44;;;3.09;82.89
77574;BME280;66710;48.868;9.080;2023-02-22T06:09:30;97720.66;;;3.12;82.98
77574;BME280;66710;48.868;9.080;2023-02-22T06:11:56;97718.44;;;3.09;83.42
77574;BME280;66710;48.868;9.080;2023-02-22T06:14:22;97706.28;;;3.06;83.24
77574;BME280;66710;48.868;9.080;2023-02-22T06:16:52;97717.41;;;3.10;83.01
77574;BME280;66710;48.868;9.080;2023-02-22T06:19:18;97719.03;;;3.11;83.11
77574;BME280;66710;48.868;9.080;2023-02-22T06:21:55;97718.44;;;3.09;83.68
77574;BME280;66710;48.868;9.080;2023-02-22T06:24:21;97720.78;;;3.17;82.90
77574;BME280;66710;48.868;9.080;2023-02-22T06:26:56;97726.31;;;3.22;82.56
77574;BME280;66710;48.868;9.080;2023-02-22T06:29:23;97720.34;;;3.20;82.22
77574;BME280;66710;48.868;9.080;2023-02-22T06:31:48;97732.63;;;3.28;82.56
77574;BME280;66710;48.868;9.080;2023-02-22T06:34:14;97730.38;;;3.25;81.82
77574;BME280;66710;48.868;9.080;2023-02-22T06:36:40;97735.78;;;3.25;82.18
77574;BME280;66710;48.868;9.080;2023-02-22T06:39:06;97738.25;;;3.26;81.91
77574;BME280;66710;48.868;9.080;2023-02-22T06:41:39;97736.13;;;3.28;81.75
77574;BME280;66710;48.868;9.080;2023-02-22T06:44:04;97740.38;;;3.36;81.23
77574;BME280;66710;48.868;9.080;2023-02-22T06:46:30;97741.41;;;3.35;80.90
77574;BME280;66710;48.868;9.080;2023-02-22T06:48:56;97747.16;;;3.38;81.15
77574;BME280;66710;48.868;9.080;2023-02-22T06:51:24;97750.19;;;3.42;81.54
77574;BME280;66710;48.868;9.080;2023-02-22T06:53:49;97746.00;;;3.46;81.67
77574;BME280;66710;48.868;9.080;2023-02-22T06:56:15;97753.25;;;3.46;80.66
77574;BME280;66710;48.868;9.080;2023-02-22T06:58:40;97751.25;;;3.53;80.92
77574;BME280;66710;48.868;9.080;2023-02-22T07:01:05;97756.53;;;3.59;80.15
77574;BME280;66710;48.868;9.080;2023-02-22T07:03:32;97751.03;;;3.66;80.50
77574;BME280;66710;48.868;9.080;2023-02-22T07:05:58;97750.94;;;3.73;79.77
77574;BME280;66710;48.868;9.080;2023-02-22T07:08:23;97754.44;;;3.85;78.59
77574;BME280;66710;48.868;9.080;2023-02-22T07:10:49;97755.13;;;3.92;79.77
77574;BME280;66710;48.868;9.080;2023-02-22T07:13:14;97755.59;;;4.01;79.30
77574;BME280;66710;48.868;9.080;2023-02-22T07:15:40;97750.66;;;4.10;79.55
77574;BME280;66710;48.868;9.080;2023-02-22T07:18:06;97757.66;;;4.23;79.05
77574;BME280;66710;48.868;9.080;2023-02-22T07:20:32;97762.53;;;4.37;79.23
77574;BME280;66710;48.868;9.080;2023-02-22T07:22:58;97763.75;;;4.30;78.75
77574;BME280;66710;48.868;9.080;2023-02-22T07:25:24;97762.50;;;4.49;78.52
77574;BME280;66710;48.868;9.080;2023-02-22T07:27:50;97766.19;;;4.43;78.26
77574;BME280;66710;48.868;9.080;2023-02-22T07:32:42;97774.09;;;4.62;78.44
77574;BME280;66710;48.868;9.080;2023-02-22T07:35:24;97765.78;;;4.51;75.97
77574;BME280;66710;48.868;9.080;2023-02-22T07:37:49;97783.22;;;4.20;76.56
77574;BME280;66710;48.868;9.080;2023-02-22T07:40:16;97777.03;;;3.96;77.84
77574;BME280;66710;48.868;9.080;2023-02-22T07:42:59;97780.44;;;4.15;77.58
77574;BME280;66710;48.868;9.080;2023-02-22T07:45:30;97780.25;;;4.45;76.73
77574;BME280;66710;48.868;9.080;2023-02-22T07:47:56;97776.56;;;4.51;76.99
77574;BME280;66710;48.868;9.080;2023-02-22T07:50:24;97783.25;;;4.61;77.05
77574;BME280;66710;48.868;9.080;2023-02-22T07:52:52;97776.88;;;4.67;76.85
77574;BME280;66710;48.868;9.080;2023-02-22T07:55:19;97777.66;;;4.79;76.31
77574;BME280;66710;48.868;9.080;2023-02-22T07:57:47;97783.63;;;4.81;76.70
77574;BME280;66710;48.868;9.080;2023-02-22T08:00:15;97780.00;;;4.87;76.38
77574;BME280;66710;48.868;9.080;2023-02-22T08:02:41;97769.16;;;5.16;75.94
77574;BME280;66710;48.868;9.080;2023-02-22T08:05:07;97775.78;;;5.25;75.47
77574;BME280;66710;48.868;9.080;2023-02-22T08:07:35;97785.31;;;5.45;75.10
77574;BME280;66710;48.868;9.080;2023-02-22T08:10:03;97775.00;;;5.76;74.50
77574;BME280;66710;48.868;9.080;2023-02-22T08:12:31;97771.38;;;6.04;73.47
77574;BME280;66710;48.868;9.080;2023-02-22T08:14:57;97773.72;;;6.17;73.20
77574;BME280;66710;48.868;9.080;2023-02-22T08:17:22;97771.66;;;6.24;73.07
77574;BME280;66710;48.868;9.080;2023-02-22T08:19:47;97777.34;;;6.45;72.17
77574;BME280;66710;48.868;9.080;2023-02-22T08:22:13;97767.88;;;6.70;72.12
77574;BME280;66710;48.868;9.080;2023-02-22T08:24:38;97762.84;;;6.78;71.71
77574;BME280;66710;48.868;9.080;2023-02-22T08:27:04;97762.75;;;6.95;71.53
77574;BME280;66710;48.868;9.080;2023-02-22T08:29:30;97763.56;;;7.23;70.83
77574;BME280;66710;48.868;9.080;2023-02-22T08:31:59;97771.72;;;7.55;70.76
77574;BME280;66710;48.868;9.080;2023-02-22T08:34:24;97765.78;;;7.64;69.41
77574;BME280;66710;48.868;9.080;2023-02-22T08:36:50;97768.13;;;7.82;68.43
77574;BME280;66710;48.868;9.080;2023-02-22T08:39:15;97768.25;;;8.08;68.10
77574;BME280;66710;48.868;9.080;2023-02-22T08:41:40;97766.16;;;8.20;67.43
77574;BME280;66710;48.868;9.080;2023-02-22T08:44:05;97767.91;;;8.37;66.86
77574;BME280;66710;48.868;9.080;2023-02-22T08:46:31;97771.84;;;8.71;65.97
77574;BME280;66710;48.868;9.080;2023-02-22T08:48:56;97768.41;;;8.33;66.70
77574;BME280;66710;48.868;9.080;2023-02-22T08:51:21;97757.69;;;8.49;66.99
77574;BME280;66710;48.868;9.080;2023-02-22T08:53:47;97765.81;;;8.49;66.50
77574;BME280;66710;48.868;9.080;2023-02-22T08:56:12;97757.44;;;8.66;66.13
77574;BME280;66710;48.868;9.080;2023-02-22T08:58:37;97758.63;;;8.90;65.50
77574;BME280;66710;48.868;9.080;2023-02-22T09:01:02;97766.06;;;9.57;63.75
77574;BME280;66710;48.868;9.080;2023-02-22T09:03:28;97763.59;;;9.40;64.23
77574;BME280;66710;48.868;9.080;2023-02-22T09:05:53;97769.19;;;10.46;61.89
77574;BME280;66710;48.868;9.080;2023-02-22T09:08:19;97762.63;;;10.62;61.00
77574;BME280;66710;48.868;9.080;2023-02-22T09:10:45;97767.19;;;10.72;60.66
77574;BME280;66710;48.868;9.080;2023-02-22T09:13:11;97763.28;;;10.13;60.83
77574;BME280;66710;48.868;9.080;2023-02-22T09:15:37;97756.94;;;11.43;59.48
77574;BME280;66710;48.868;9.080;2023-02-22T09:18:05;97756.22;;;11.32;58.66
77574;BME280;66710;48.868;9.080;2023-02-22T09:20:32;97751.72;;;11.12;58.45
77574;BME280;66710;48.868;9.080;2023-02-22T09:23:00;97748.28;;;11.70;57.18
77574;BME280;66710;48.868;9.080;2023-02-22T09:25:27;97745.13;;;11.58;56.51
77574;BME280;66710;48.868;9.080;2023-02-22T09:27:53;97748.41;;;11.55;56.03
77574;BME280;66710;48.868;9.080;2023-02-22T09:30:24;97750.38;;;12.13;55.21
77574;BME280;66710;48.868;9.080;2023-02-22T09:32:54;97745.47;;;12.10;54.69
77574;BME280;66710;48.868;9.080;2023-02-22T09:35:22;97744.09;;;12.12;55.33
77574;BME280;66710;48.868;9.080;2023-02-22T09:37:58;97744.88;;;13.23;54.13
77574;BME280;66710;48.868;9.080;2023-02-22T09:40:25;97735.09;;;12.79;53.31
77574;BME280;66710;48.868;9.080;2023-02-22T09:46:19;97746.78;;;12.66;54.87
77574;BME280;66710;48.868;9.080;2023-02-22T09:51:44;97727.69;;;12.85;53.17
77574;BME280;66710;48.868;9.080;2023-02-22T09:54:20;97729.53;;;13.08;52.11
77574;BME280;66710;48.868;9.080;2023-02-22T09:56:49;97728.28;;;13.72;52.39
77574;BME280;66710;48.868;9.080;2023-02-22T09:59:22;97728.75;;;13.60;52.05
77574;BME280;66710;48.868;9.080;2023-02-22T10:01:54;97729.53;;;13.46;51.64
77574;BME280;66710;48.868;9.080;2023-02-22T10:04:38;97735.59;;;13.43;51.74
77574;BME280;66710;48.868;9.080;2023-02-22T10:09:33;97733.53;;;13.35;51.27
77574;BME280;66710;48.868;9.080;2023-02-22T10:12:17;97734.25;;;14.07;49.74
77574;BME280;66710;48.868;9.080;2023-02-22T10:20:39;97727.63;;;15.41;47.18
77574;BME280;66710;48.868;9.080;2023-02-22T10:23:40;97721.25;;;15.54;47.58
77574;BME280;66710;48.868;9.080;2023-02-22T10:28:40;97721.63;;;15.16;47.06
77574;BME280;66710;48.868;9.080;2023-02-22T10:31:16;97722.91;;;14.83;46.62
77574;BME280;66710;48.868;9.080;2023-02-22T10:33:47;97711.13;;;15.78;45.78
77574;BME280;66710;48.868;9.080;2023-02-22T10:36:18;97702.56;;;16.51;44.55
77574;BME280;66710;48.868;9.080;2023-02-22T10:38:53;97705.31;;;16.51;43.99
77574;BME280;66710;48.868;9.080;2023-02-22T10:41:35;97705.31;;;16.10;44.27
77574;BME280;66710;48.868;9.080;2023-02-22T10:44:03;97708.91;;;16.68;44.10
77574;BME280;66710;48.868;9.080;2023-02-22T10:46:30;97707.63;;;16.26;44.61
77574;BME280;66710;48.868;9.080;2023-02-22T10:49:02;97699.44;;;17.27;44.07
77574;BME280;66710;48.868;9.080;2023-02-22T10:51:29;97709.13;;;16.41;44.23
77574;BME280;66710;48.868;9.080;2023-02-22T10:56:49;97701.09;;;16.04;46.73
77574;BME280;66710;48.868;9.080;2023-02-22T10:59:31;97699.63;;;16.07;45.80
77574;BME280;66710;48.868;9.080;2023-02-22T11:01:57;97697.38;;;15.78;46.80
77574;BME280;66710;48.868;9.080;2023-02-22T11:04:23;97699.13;;;16.05;45.79
77574;BME280;66710;48.868;9.080;2023-02-22T11:09:23;97695.50;;;16.27;45.39
77574;BME280;66710;48.868;9.080;2023-02-22T11:12:06;97698.16;;;16.41;44.74
77574;BME280;66710;48.868;9.080;2023-02-22T11:14:31;97685.50;;;16.97;44.41
77574;BME280;66710;48.868;9.080;2023-02-22T11:16:58;97688.09;;;17.02;43.57
77574;BME280;66710;48.868;9.080;2023-02-22T11:19:26;97689.06;;;17.24;43.29
77574;BME280;66710;48.868;9.080;2023-02-22T11:21:55;97690.28;;;16.65;43.15
77574;BME280;66710;48.868;9.080;2023-02-22T11:24:22;97686.78;;;16.82;44.11
77574;BME280;66710;48.868;9.080;2023-02-22T11:26:54;97685.34;;;17.37;42.32
77574;BME280;66710;48.868;9.080;2023-02-22T11:29:29;97677.91;;;16.85;44.29
77574;BME280;66710;48.868;9.080;2023-02-22T11:32:09;97688.63;;;16.47;45.43
77574;BME280;66710;48.868;9.080;2023-02-22T11:34:38;97680.34;;;17.39;42.98
77574;BME280;66710;48.868;9.080;2023-02-22T11:39:43;97681.56;;;16.72;44.11
77574;BME280;66710;48.868;9.080;2023-02-22T11:42:26;97678.44;;;16.47;44.19
77574;BME280;66710;48.868;9.080;2023-02-22T11:47:55;97668.78;;;17.72;42.33
77574;BME280;66710;48.868;9.080;2023-02-22T11:50:33;97662.25;;;18.33;41.07
77574;BME280;66710;48.868;9.080;2023-02-22T11:55:38;97655.19;;;17.67;42.04
77574;BME280;66710;48.868;9.080;2023-02-22T12:01:10;97656.31;;;17.66;43.10
77574;BME280;66710;48.868;9.080;2023-02-22T12:09:12;97640.59;;;16.62;44.88
77574;BME280;66710;48.868;9.080;2023-02-22T12:14:30;97633.53;;;16.96;43.09
77574;BME280;66710;48.868;9.080;2023-02-22T12:17:09;97630.72;;;17.57;41.76
77574;BME280;66710;48.868;9.080;2023-02-22T12:22:09;97640.03;;;17.26;43.58
77574;BME280;66710;48.868;9.080;2023-02-22T12:24:45;97634.88;;;17.80;42.20
77574;BME280;66710;48.868;9.080;2023-02-22T12:27:25;97629.91;;;17.65;42.29
77574;BME280;66710;48.868;9.080;2023-02-22T12:30:01;97623.28;;;16.53;44.32
77574;BME280;66710;48.868;9.080;2023-02-22T12:32:37;97632.09;;;18.28;41.63
77574;BME280;66710;48.868;9.080;2023-02-22T12:35:27;97629.56;;;17.75;42.18
77574;BME280;66710;48.868;9.080;2023-02-22T12:38:00;97620.69;;;17.43;42.90
77574;BME280;66710;48.868;9.080;2023-02-22T12:40:35;97617.31;;;17.29;43.91
77574;BME280;66710;48.868;9.080;2023-02-22T12:43:15;97619.41;;;17.41;43.01
77574;BME280;66710;48.868;9.080;2023-02-22T12:48:41;97619.41;;;17.41;43.80
77574;BME280;66710;48.868;9.080;2023-02-22T12:51:20;97623.31;;;18.05;42.47
77574;BME280;66710;48.868;9.080;2023-02-22T12:54:31;97616.63;;;18.14;42.49
77574;BME280;66710;48.868;9.080;2023-02-22T12:57:13;97610.19;;;17.46;43.41
77574;BME280;66710;48.868;9.080;2023-02-22T13:02:35;97613.06;;;18.65;41.53
77574;BME280;66710;48.868;9.080;2023-02-22T13:05:04;97607.88;;;19.26;40.01
77574;BME280;66710;48.868;9.080;2023-02-22T13:07:41;97610.72;;;20.58;38.26
77574;BME280;66710;48.868;9.080;2023-02-22T13:10:34;97610.94;;;19.46;38.99
77574;BME280;66710;48.868;9.080;2023-02-22T13:18:48;97603.00;;;19.44;38.81
77574;BME280;66710;48.868;9.080;2023-02-22T13:21:51;97611.63;;;19.76;38.79
77574;BME280;66710;48.868;9.080;2023-02-22T13:24:24;97594.13;;;19.39;38.91
77574;BME280;66710;48.868;9.080;2023-02-22T13:26:54;97596.91;;;19.51;39.04
77574;BME280;66710;48.868;9.080;2023-02-22T13:29:33;97598.41;;;19.15;39.23
77574;BME280;66710;48.868;9.080;2023-02-22T13:34:46;97595.59;;;19.03;39.09
77574;BME280;66710;48.868;9.080;2023-02-22T13:40:17;97594.78;;;16.22;44.75
77574;BME280;66710;48.868;9.080;2023-02-22T13:43:33;97593.53;;;16.81;44.13
77574;BME280;66710;48.868;9.080;2023-02-22T13:45:55;97594.34;;;16.81;44.67
77574;BME280;66710;48.868;9.080;2023-02-22T13:53:59;97592.09;;;16.92;44.49
77574;BME280;66710;48.868;9.080;2023-02-22T13:56:27;97590.81;;;16.98;43.65
77574;BME280;66710;48.868;9.080;2023-02-22T13:58:56;97596.66;;;17.70;43.87
77574;BME280;66710;48.868;9.080;2023-02-22T14:01:49;97594.97;;;17.39;43.96
77574;BME280;66710;48.868;9.080;2023-02-22T14:06:54;97593.41;;;16.95;43.84
77574;BME280;66710;48.868;9.080;2023-02-22T14:09:53;97588.66;;;16.52;44.11
77574;BME280;66710;48.868;9.080;2023-02-22T14:17:36;97590.75;;;17.42;42.53
77574;BME280;66710;48.868;9.080;2023-02-22T14:20:33;97584.16;;;16.99;43.26
77574;BME280;66710;48.868;9.080;2023-02-22T14:25:47;97585.75;;;16.74;44.61
77574;BME280;66710;48.868;9.080;2023-02-22T14:28:33;97582.53;;;16.81;44.58
77574;BME280;66710;48.868;9.080;2023-02-22T14:31:15;97581.75;;;17.07;44.06
77574;BME280;66710;48.868;9.080;2023-02-22T14:34:04;97586.66;;;16.17;45.15
77574;BME280;66710;48.868;9.080;2023-02-22T14:39:19;97583.84;;;15.91;45.79
77574;BME280;66710;48.868;9.080;2023-02-22T14:42:23;97586.50;;;16.14;46.08
77574;BME280;66710;48.868;9.080;2023-02-22T14:44:58;97583.31;;;15.80;47.07
77574;BME280;66710;48.868;9.080;2023-02-22T14:47:47;97584.03;;;16.03;47.22
77574;BME280;66710;48.868;9.080;2023-02-22T14:50:32;97580.84;;;16.19;46.69
77574;BME280;66710;48.868;9.080;2023-02-22T14:53:16;97582.63;;;16.23;46.45
77574;BME280;66710;48.868;9.080;2023-02-22T14:55:48;97585.97;;;16.03;46.99
77574;BME280;66710;48.868;9.080;2023-02-22T14:58:19;97586.13;;;15.66;47.02
77574;BME280;66710;48.868;9.080;2023-02-22T15:00:48;97585.44;;;15.83;47.22
77574;BME280;66710;48.868;9.080;2023-02-22T15:03:33;97584.88;;;16.13;47.16
77574;BME280;66710;48.868;9.080;2023-02-22T15:06:05;97587.84;;;16.42;46.54
77574;BME280;66710;48.868;9.080;2023-02-22T15:08:31;97588.13;;;16.32;46.01
77574;BME280;66710;48.868;9.080;2023-02-22T15:10:59;97590.50;;;15.36;49.67
77574;BME280;66710;48.868;9.080;2023-02-22T15:13:28;97575.50;;;15.42;49.18
77574;BME280;66710;48.868;9.080;2023-02-22T15:16:02;97580.53;;;15.17;49.37
77574;BME280;66710;48.868;9.080;2023-02-22T15:18:40;97586.75;;;14.64;50.61